sensor_id;sensor_type;location;lat;lon;timestamp;pressure;altitude;pressure_sealevel;temperature;humidity
35489;BME280;21602;55.670;37.578;2023-05-22T00:00:18;99851.03;;;14.13;73.51
35489;BME280;21602;55.670;37.578;2023-05-22T00:02:44;99855.59;;;14.12;73.58
35489;BME280;21602;55.670;37.578;2023-05-22T00:05:13;99861.53;;;14.14;73.66
35489;BME280;21602;55.670;37.578;2023-05-22T00:07:39;99860.50;;;14.15;73.67
35489;BME280;21602;55.670;37.578;2023-05-22T00:10:07;99863.19;;;14.15;73.72
35489;BME280;21602;55.670;37.578;2023-05-22T00:12:33;99872.78;;;14.11;73.62
35489;BME280;21602;55.670;37.578;2023-05-22T00:15:00;99874.56;;;14.05;73.45
35489;BME280;21602;55.670;37.578;2023-05-22T00:17:27;99877.38;;;13.99;73.62
35489;BME280;21602;55.670;37.578;2023-05-22T00:19:55;99873.97;;;13.87;73.96
35489;BME280;21602;55.670;37.578;2023-05-22T00:22:21;99860.03;;;13.73;74.04
35489;BME280;21602;55.670;37.578;2023-05-22T00:24:47;99860.91;;;13.62;74.83
35489;BME280;21602;55.670;37.578;2023-05-22T00:27:12;99856.25;;;13.57;74.90
35489;BME280;21602;55.670;37.578;2023-05-22T00:29:38;99861.41;;;13.58;75.25
35489;BME280;21602;55.670;37.578;2023-05-22T00:32:05;99860.69;;;13.63;75.49
35489;BME280;21602;55.670;37.578;2023-05-22T00:34:31;99870.44;;;13.69;75.45
35489;BME280;21602;55.670;37.578;2023-05-22T00:36:57;99869.97;;;13.72;75.52
35489;BME280;21602;55.670;37.578;2023-05-22T00:39:23;99862.47;;;13.74;75.54
35489;BME280;21602;55.670;37.578;2023-05-22T00:41:49;99868.19;;;13.78;75.53
35489;BME280;21602;55.670;37.578;2023-05-22T00:44:15;99861.50;;;13.80;75.48
35489;BME280;21602;55.670;37.578;2023-05-22T00:46:41;99858.34;;;13.83;75.61
35489;BME280;21602;55.670;37.578;2023-05-22T00:49:08;99859.50;;;13.88;75.67
35489;BME280;21602;55.670;37.578;2023-05-22T00:51:34;99860.31;;;13.88;75.59
35489;BME280;21602;55.670;37.578;2023-05-22T00:53:59;99864.13;;;13.92;75.72
35489;BME280;21602;55.670;37.578;2023-05-22T00:56:25;99865.50;;;13.95;75.67
35489;BME280;21602;55.670;37.578;2023-05-22T00:58:54;99853.72;;;13.96;75.58
35489;BME280;21602;55.670;37.578;2023-05-22T01:01:19;99858.03;;;13.97;75.00
35489;BME280;21602;55.670;37.578;2023-05-22T01:03:49;99860.13;;;13.95;74.83
35489;BME280;21602;55.670;37.578;2023-05-22T01:06:16;99861.19;;;13.94;74.91
35489;BME280;21602;55.670;37.578;2023-05-22T01:08:43;99853.72;;;13.96;74.60
35489;BME280;21602;55.670;37.578;2023-05-22T01:11:17;99855.28;;;13.92;74.75
35489;BME280;21602;55.670;37.578;2023-05-22T01:16:55;99845.47;;;13.86;75.23
35489;BME280;21602;55.670;37.578;2023-05-22T01:31:16;99871.19;;;13.81;75.72
35489;BME280;21602;55.670;37.578;2023-05-22T01:33:47;99866.41;;;13.83;75.54
35489;BME280;21602;55.670;37.578;2023-05-22T01:36:19;99859.63;;;13.81;75.24
35489;BME280;21602;55.670;37.578;2023-05-22T01:38:48;99859.41;;;13.82;75.29
35489;BME280;21602;55.670;37.578;2023-05-22T01:41:15;99861.03;;;13.83;75.43
35489;BME280;21602;55.670;37.578;2023-05-22T01:43:42;99854.84;;;13.83;75.35
35489;BME280;21602;55.670;37.578;2023-05-22T01:46:08;99861.59;;;13.86;75.31
35489;BME280;21602;55.670;37.578;2023-05-22T01:48:35;99860.56;;;13.87;75.21
35489;BME280;21602;55.670;37.578;2023-05-22T01:51:14;99861.66;;;13.91;75.31
35489;BME280;21602;55.670;37.578;2023-05-22T01:56:24;99860.78;;;13.85;75.03
35489;BME280;21602;55.670;37.578;2023-05-22T01:59:22;99856.13;;;13.80;75.23
35489;BME280;21602;55.670;37.578;2023-05-22T02:01:51;99858.09;;;13.68;75.19
35489;BME280;21602;55.670;37.578;2023-05-22T02:04:20;99854.38;;;13.57;75.32
35489;BME280;21602;55.670;37.578;2023-05-22T02:06:46;99859.34;;;13.49;75.76
35489;BME280;21602;55.670;37.578;2023-05-22T02:09:14;99853.63;;;13.45;75.94
35489;BME280;21602;55.670;37.578;2023-05-22T02:11:42;99855.72;;;13.43;76.02
35489;BME280;21602;55.670;37.578;2023-05-22T02:14:08;99853.06;;;13.43;75.82
35489;BME280;21602;55.670;37.578;2023-05-22T02:16:37;99857.13;;;13.46;76.04
35489;BME280;21602;55.670;37.578;2023-05-22T02:19:03;99869.34;;;13.53;76.24
35489;BME280;21602;55.670;37.578;2023-05-22T02:21:52;99863.28;;;13.58;76.38
35489;BME280;21602;55.670;37.578;2023-05-22T02:24:19;99875.47;;;13.66;76.34
35489;BME280;21602;55.670;37.578;2023-05-22T02:26:45;99875.34;;;13.72;76.03
35489;BME280;21602;55.670;37.578;2023-05-22T02:29:12;99877.50;;;13.75;76.06
35489;BME280;21602;55.670;37.578;2023-05-22T02:31:38;99878.81;;;13.73;76.07
35489;BME280;21602;55.670;37.578;2023-05-22T02:34:04;99874.75;;;13.70;76.03
35489;BME280;21602;55.670;37.578;2023-05-22T02:36:31;99873.03;;;13.64;76.23
35489;BME280;21602;55.670;37.578;2023-05-22T02:38:58;99874.00;;;13.58;76.14
35489;BME280;21602;55.670;37.578;2023-05-22T02:41:24;99873.88;;;13.53;76.62
35489;BME280;21602;55.670;37.578;2023-05-22T02:43:50;99875.44;;;13.49;77.01
35489;BME280;21602;55.670;37.578;2023-05-22T02:46:16;99888.63;;;13.39;77.64
35489;BME280;21602;55.670;37.578;2023-05-22T02:48:42;99885.75;;;13.28;77.85
35489;BME280;21602;55.670;37.578;2023-05-22T02:51:07;99890.31;;;13.28;78.19
35489;BME280;21602;55.670;37.578;2023-05-22T02:53:34;99888.44;;;13.28;78.61
35489;BME280;21602;55.670;37.578;2023-05-22T02:56:09;99891.81;;;13.36;78.55
35489;BME280;21602;55.670;37.578;2023-05-22T02:58:37;99894.84;;;13.39;78.33
35489;BME280;21602;55.670;37.578;2023-05-22T03:01:04;99891.19;;;13.45;77.84
35489;BME280;21602;55.670;37.578;2023-05-22T03:03:32;99895.94;;;13.55;77.54
35489;BME280;21602;55.670;37.578;2023-05-22T03:05:59;99895.13;;;13.54;76.75
35489;BME280;21602;55.670;37.578;2023-05-22T03:08:27;99895.22;;;13.60;76.57
35489;BME280;21602;55.670;37.578;2023-05-22T03:10:54;99890.19;;;13.63;76.39
35489;BME280;21602;55.670;37.578;2023-05-22T03:13:21;99894.59;;;13.69;76.21
35489;BME280;21602;55.670;37.578;2023-05-22T03:15:47;99886.72;;;13.79;76.10
35489;BME280;21602;55.670;37.578;2023-05-22T03:18:15;99886.06;;;13.89;75.93
35489;BME280;21602;55.670;37.578;2023-05-22T03:20:42;99884.16;;;14.01;75.55
35489;BME280;21602;55.670;37.578;2023-05-22T03:23:10;99883.34;;;14.18;75.20
35489;BME280;21602;55.670;37.578;2023-05-22T03:25:36;99876.97;;;14.24;73.79
35489;BME280;21602;55.670;37.578;2023-05-22T03:28:02;99874.06;;;14.25;73.67
35489;BME280;21602;55.670;37.578;2023-05-22T03:30:32;99882.53;;;14.17;72.81
35489;BME280;21602;55.670;37.578;2023-05-22T03:33:09;99886.75;;;14.13;73.11
35489;BME280;21602;55.670;37.578;2023-05-22T03:35:36;99886.03;;;14.18;72.76
35489;BME280;21602;55.670;37.578;2023-05-22T03:38:03;99895.13;;;14.17;72.45
35489;BME280;21602;55.670;37.578;2023-05-22T03:40:28;99897.56;;;14.18;72.21
35489;BME280;21602;55.670;37.578;2023-05-22T03:42:55;99899.84;;;14.26;72.43
35489;BME280;21602;55.670;37.578;2023-05-22T03:45:21;99891.41;;;14.34;72.27
35489;BME280;21602;55.670;37.578;2023-05-22T03:47:49;99886.28;;;14.50;72.20
35489;BME280;21602;55.670;37.578;2023-05-22T03:50:15;99891.47;;;14.56;71.62
35489;BME280;21602;55.670;37.578;2023-05-22T03:52:41;99898.06;;;14.66;71.45
35489;BME280;21602;55.670;37.578;2023-05-22T03:55:07;99893.09;;;14.74;71.26
35489;BME280;21602;55.670;37.578;2023-05-22T03:57:33;99892.59;;;14.77;71.02
35489;BME280;21602;55.670;37.578;2023-05-22T04:00:00;99895.53;;;14.76;70.86
35489;BME280;21602;55.670;37.578;2023-05-22T04:02:39;99897.16;;;14.77;71.14
35489;BME280;21602;55.670;37.578;2023-05-22T04:05:10;99899.00;;;14.76;71.19
35489;BME280;21602;55.670;37.578;2023-05-22T04:07:36;99898.78;;;14.78;71.33
35489;BME280;21602;55.670;37.578;2023-05-22T04:10:05;99901.72;;;14.76;71.88
35489;BME280;21602;55.670;37.578;2023-05-22T04:12:33;99895.72;;;14.69;72.37
35489;BME280;21602;55.670;37.578;2023-05-22T04:14:59;99905.56;;;14.64;72.80
35489;BME280;21602;55.670;37.578;2023-05-22T04:17:29;99901.75;;;14.59;73.33
35489;BME280;21602;55.670;37.578;2023-05-22T04:19:58;99899.31;;;14.58;73.92
35489;BME280;21602;55.670;37.578;2023-05-22T04:22:28;99902.75;;;14.53;74.99
35489;BME280;21602;55.670;37.578;2023-05-22T04:24:56;99897.59;;;14.52;75.01
35489;BME280;21602;55.670;37.578;2023-05-22T04:27:24;99895.72;;;14.52;75.54
35489;BME280;21602;55.670;37.578;2023-05-22T04:29:51;99903.47;;;14.49;76.23
35489;BME280;21602;55.670;37.578;2023-05-22T04:32:17;99899.97;;;14.48;76.38
35489;BME280;21602;55.670;37.578;2023-05-22T04:34:47;99901.81;;;14.48;76.43
35489;BME280;21602;55.670;37.578;2023-05-22T04:37:18;99906.16;;;14.49;76.83
35489;BME280;21602;55.670;37.578;2023-05-22T04:39:45;99909.56;;;14.44;77.90
35489;BME280;21602;55.670;37.578;2023-05-22T04:42:12;99901.00;;;14.30;78.41
35489;BME280;21602;55.670;37.578;2023-05-22T04:44:40;99910.53;;;14.21;81.07
35489;BME280;21602;55.670;37.578;2023-05-22T04:47:10;99901.78;;;14.14;80.91
35489;BME280;21602;55.670;37.578;2023-05-22T04:49:37;99898.56;;;14.12;81.83
35489;BME280;21602;55.670;37.578;2023-05-22T04:52:05;99899.84;;;14.09;82.81
35489;BME280;21602;55.670;37.578;2023-05-22T04:54:32;99903.84;;;14.07;83.67
35489;BME280;21602;55.670;37.578;2023-05-22T04:56:58;99898.72;;;14.05;84.45
35489;BME280;21602;55.670;37.578;2023-05-22T04:59:25;99904.81;;;14.01;85.62
35489;BME280;21602;55.670;37.578;2023-05-22T05:01:52;99903.59;;;13.92;85.32
35489;BME280;21602;55.670;37.578;2023-05-22T05:04:17;99910.50;;;13.88;86.23
35489;BME280;21602;55.670;37.578;2023-05-22T05:06:44;99907.22;;;13.86;86.59
35489;BME280;21602;55.670;37.578;2023-05-22T05:09:11;99919.59;;;13.87;87.44
35489;BME280;21602;55.670;37.578;2023-05-22T05:11:37;99914.53;;;13.90;87.98
35489;BME280;21602;55.670;37.578;2023-05-22T05:14:02;99913.50;;;13.91;88.44
35489;BME280;21602;55.670;37.578;2023-05-22T05:16:29;99908.44;;;13.95;89.74
35489;BME280;21602;55.670;37.578;2023-05-22T05:18:55;99899.13;;;13.97;90.56
35489;BME280;21602;55.670;37.578;2023-05-22T05:21:22;99897.50;;;13.96;90.31
35489;BME280;21602;55.670;37.578;2023-05-22T05:23:48;99887.69;;;13.90;90.99
35489;BME280;21602;55.670;37.578;2023-05-22T05:26:14;99897.53;;;13.84;90.56
35489;BME280;21602;55.670;37.578;2023-05-22T05:28:40;99909.34;;;13.83;91.30
35489;BME280;21602;55.670;37.578;2023-05-22T05:31:07;99908.03;;;13.86;92.14
35489;BME280;21602;55.670;37.578;2023-05-22T05:33:52;99907.47;;;13.84;92.73
35489;BME280;21602;55.670;37.578;2023-05-22T05:36:33;99913.63;;;13.84;93.19
35489;BME280;21602;55.670;37.578;2023-05-22T05:39:00;99921.13;;;13.82;93.24
35489;BME280;21602;55.670;37.578;2023-05-22T05:41:26;99914.22;;;13.87;93.69
35489;BME280;21602;55.670;37.578;2023-05-22T05:43:59;99922.03;;;13.88;93.74
35489;BME280;21602;55.670;37.578;2023-05-22T05:46:29;99930.81;;;13.83;93.68
35489;BME280;21602;55.670;37.578;2023-05-22T05:48:56;99932.72;;;13.71;93.90
35489;BME280;21602;55.670;37.578;2023-05-22T05:51:23;99941.16;;;13.63;94.78
35489;BME280;21602;55.670;37.578;2023-05-22T05:53:49;99944.31;;;13.60;95.74
35489;BME280;21602;55.670;37.578;2023-05-22T05:56:15;99935.69;;;13.58;96.15
35489;BME280;21602;55.670;37.578;2023-05-22T05:58:41;99929.50;;;13.57;96.80
35489;BME280;21602;55.670;37.578;2023-05-22T06:01:43;99930.00;;;13.54;97.51
35489;BME280;21602;55.670;37.578;2023-05-22T06:04:16;99927.53;;;13.53;97.68
35489;BME280;21602;55.670;37.578;2023-05-22T06:06:45;99936.50;;;13.58;97.47
35489;BME280;21602;55.670;37.578;2023-05-22T06:09:14;99937.66;;;13.63;98.19
35489;BME280;21602;55.670;37.578;2023-05-22T06:12:03;99932.88;;;13.65;98.10
35489;BME280;21602;55.670;37.578;2023-05-22T06:14:31;99935.28;;;13.66;98.46
35489;BME280;21602;55.670;37.578;2023-05-22T06:17:01;99931.09;;;13.70;99.10
35489;BME280;21602;55.670;37.578;2023-05-22T06:19:26;99926.31;;;13.72;100.00
35489;BME280;21602;55.670;37.578;2023-05-22T06:21:53;99926.88;;;13.74;99.58
35489;BME280;21602;55.670;37.578;2023-05-22T06:24:22;99923.31;;;13.86;99.83
35489;BME280;21602;55.670;37.578;2023-05-22T06:26:49;99932.28;;;13.91;99.80
35489;BME280;21602;55.670;37.578;2023-05-22T06:29:15;99930.34;;;13.87;99.34
35489;BME280;21602;55.670;37.578;2023-05-22T06:31:44;99920.72;;;13.91;99.72
35489;BME280;21602;55.670;37.578;2023-05-22T06:34:11;99923.03;;;13.99;100.00
35489;BME280;21602;55.670;37.578;2023-05-22T06:36:37;99924.63;;;14.00;100.00
35489;BME280;21602;55.670;37.578;2023-05-22T06:39:03;99918.88;;;13.91;100.00
35489;BME280;21602;55.670;37.578;2023-05-22T06:42:05;99903.41;;;13.81;100.00
35489;BME280;21602;55.670;37.578;2023-05-22T06:44:51;99907.63;;;13.77;100.00
35489;BME280;21602;55.670;37.578;2023-05-22T06:47:18;99901.44;;;13.77;100.00
35489;BME280;21602;55.670;37.578;2023-05-22T06:49:46;99920.88;;;13.84;100.00
35489;BME280;21602;55.670;37.578;2023-05-22T06:52:13;99940.56;;;13.90;100.00
35489;BME280;21602;55.670;37.578;2023-05-22T06:54:40;99932.84;;;13.93;100.00
35489;BME280;21602;55.670;37.578;2023-05-22T06:57:09;99902.94;;;14.01;100.00
35489;BME280;21602;55.670;37.578;2023-05-22T06:59:36;99909.13;;;14.02;100.00
35489;BME280;21602;55.670;37.578;2023-05-22T07:02:04;99921.09;;;14.11;100.00
35489;BME280;21602;55.670;37.578;2023-05-22T07:04:51;99907.25;;;14.19;100.00
35489;BME280;21602;55.670;37.578;2023-05-22T07:07:32;99906.38;;;14.30;100.00
35489;BME280;21602;55.670;37.578;2023-05-22T07:09:59;99897.41;;;14.42;100.00
35489;BME280;21602;55.670;37.578;2023-05-22T07:12:27;99894.09;;;14.34;100.00
35489;BME280;21602;55.670;37.578;2023-05-22T07:14:54;99907.44;;;14.29;100.00
35489;BME280;21602;55.670;37.578;2023-05-22T07:17:23;99911.66;;;14.25;100.00
35489;BME280;21602;55.670;37.578;2023-05-22T07:19:51;99936.25;;;14.34;100.00
35489;BME280;21602;55.670;37.578;2023-05-22T07:22:17;99933.06;;;14.37;100.00
35489;BME280;21602;55.670;37.578;2023-05-22T07:24:44;99921.66;;;14.47;100.00
35489;BME280;21602;55.670;37.578;2023-05-22T07:27:15;99906.94;;;14.66;100.00
35489;BME280;21602;55.670;37.578;2023-05-22T07:29:41;99912.69;;;14.92;100.00
35489;BME280;21602;55.670;37.578;2023-05-22T07:32:08;99902.19;;;15.12;100.00
35489;BME280;21602;55.670;37.578;2023-05-22T07:34:35;99920.53;;;15.15;100.00
35489;BME280;21602;55.670;37.578;2023-05-22T07:37:07;99913.34;;;15.21;100.00
35489;BME280;21602;55.670;37.578;2023-05-22T07:39:34;99926.97;;;15.36;100.00
35489;BME280;21602;55.670;37.578;2023-05-22T07:42:01;99918.78;;;15.48;100.00
35489;BME280;21602;55.670;37.578;2023-05-22T07:44:28;99927.78;;;15.58;100.00
35489;BME280;21602;55.670;37.578;2023-05-22T07:46:55;99933.56;;;15.67;100.00
35489;BME280;21602;55.670;37.578;2023-05-22T07:49:25;99925.38;;;15.84;100.00
35489;BME280;21602;55.670;37.578;2023-05-22T07:51:51;99917.19;;;16.01;100.00
35489;BME280;21602;55.670;37.578;2023-05-22T07:54:19;99910.91;;;16.22;99.95
35489;BME280;21602;55.670;37.578;2023-05-22T07:56:51;99912.72;;;16.44;99.63
35489;BME280;21602;55.670;37.578;2023-05-22T07:59:18;99916.59;;;16.58;97.94
35489;BME280;21602;55.670;37.578;2023-05-22T08:01:46;99931.16;;;16.57;96.59
35489;BME280;21602;55.670;37.578;2023-05-22T08:04:12;99935.41;;;16.53;96.42
35489;BME280;21602;55.670;37.578;2023-05-22T08:06:39;99933.75;;;16.47;96.10
35489;BME280;21602;55.670;37.578;2023-05-22T08:09:08;99934.81;;;16.46;96.42
35489;BME280;21602;55.670;37.578;2023-05-22T08:11:33;99935.88;;;16.45;96.58
35489;BME280;21602;55.670;37.578;2023-05-22T08:14:02;99945.09;;;16.49;96.77
35489;BME280;21602;55.670;37.578;2023-05-22T08:16:28;99933.59;;;16.63;96.40
35489;BME280;21602;55.670;37.578;2023-05-22T08:19:00;99937.50;;;16.78;96.60
35489;BME280;21602;55.670;37.578;2023-05-22T08:21:27;99941.63;;;16.91;96.35
35489;BME280;21602;55.670;37.578;2023-05-22T08:23:53;99937.91;;;17.02;95.85
35489;BME280;21602;55.670;37.578;2023-05-22T08:26:20;99936.31;;;17.01;94.36
35489;BME280;21602;55.670;37.578;2023-05-22T08:28:46;99936.88;;;17.08;94.34
35489;BME280;21602;55.670;37.578;2023-05-22T08:31:13;99933.97;;;17.20;93.18
35489;BME280;21602;55.670;37.578;2023-05-22T08:33:39;99920.81;;;17.38;92.31
35489;BME280;21602;55.670;37.578;2023-05-22T08:36:05;99920.59;;;17.55;91.55
35489;BME280;21602;55.670;37.578;2023-05-22T08:38:31;99921.50;;;17.76;90.60
35489;BME280;21602;55.670;37.578;2023-05-22T08:40:57;99925.31;;;17.90;90.18
35489;BME280;21602;55.670;37.578;2023-05-22T08:43:23;99911.31;;;18.14;89.29
35489;BME280;21602;55.670;37.578;2023-05-22T08:45:54;99912.38;;;18.38;88.08
35489;BME280;21602;55.670;37.578;2023-05-22T08:48:28;99912.63;;;18.57;87.03
35489;BME280;21602;55.670;37.578;2023-05-22T08:50:57;99910.19;;;18.46;85.87
35489;BME280;21602;55.670;37.578;2023-05-22T08:53:24;99903.72;;;18.52;85.47
35489;BME280;21602;55.670;37.578;2023-05-22T08:55:53;99899.91;;;18.68;85.50
35489;BME280;21602;55.670;37.578;2023-05-22T08:58:20;99894.50;;;18.78;84.90
35489;BME280;21602;55.670;37.578;2023-05-22T09:00:47;99888.56;;;18.71;83.62
35489;BME280;21602;55.670;37.578;2023-05-22T09:03:15;99880.97;;;18.78;83.99
35489;BME280;21602;55.670;37.578;2023-05-22T09:05:43;99893.91;;;18.97;83.55
35489;BME280;21602;55.670;37.578;2023-05-22T09:08:10;99902.53;;;18.99;82.70
35489;BME280;21602;55.670;37.578;2023-05-22T09:10:37;99906.91;;;18.89;82.53
35489;BME280;21602;55.670;37.578;2023-05-22T09:13:04;99905.84;;;18.85;82.37
35489;BME280;21602;55.670;37.578;2023-05-22T09:15:33;99905.84;;;18.90;82.21
35489;BME280;21602;55.670;37.578;2023-05-22T09:17:59;99903.06;;;19.11;81.53
35489;BME280;21602;55.670;37.578;2023-05-22T09:20:25;99902.16;;;19.31;80.73
35489;BME280;21602;55.670;37.578;2023-05-22T09:22:51;99892.31;;;19.50;79.98
35489;BME280;21602;55.670;37.578;2023-05-22T09:25:18;99892.00;;;19.67;79.09
35489;BME280;21602;55.670;37.578;2023-05-22T09:27:47;99896.75;;;19.85;78.59
35489;BME280;21602;55.670;37.578;2023-05-22T09:30:17;99901.53;;;19.99;77.38
35489;BME280;21602;55.670;37.578;2023-05-22T09:32:53;99893.97;;;19.95;76.46
35489;BME280;21602;55.670;37.578;2023-05-22T09:35:19;99887.38;;;20.07;77.41
35489;BME280;21602;55.670;37.578;2023-05-22T09:37:48;99896.06;;;20.09;76.74
35489;BME280;21602;55.670;37.578;2023-05-22T09:40:14;99890.13;;;20.02;76.56
35489;BME280;21602;55.670;37.578;2023-05-22T09:42:42;99887.28;;;19.83;76.82
35489;BME280;21602;55.670;37.578;2023-05-22T09:45:11;99890.88;;;19.73;76.78
35489;BME280;21602;55.670;37.578;2023-05-22T09:47:38;99892.53;;;19.59;77.20
35489;BME280;21602;55.670;37.578;2023-05-22T09:50:05;99896.28;;;19.73;77.43
35489;BME280;21602;55.670;37.578;2023-05-22T09:52:35;99905.13;;;19.89;77.03
35489;BME280;21602;55.670;37.578;2023-05-22T09:55:02;99889.44;;;19.86;76.36
35489;BME280;21602;55.670;37.578;2023-05-22T09:57:40;99887.97;;;19.99;76.09
35489;BME280;21602;55.670;37.578;2023-05-22T10:00:08;99887.66;;;20.05;76.00
35489;BME280;21602;55.670;37.578;2023-05-22T10:02:46;99884.75;;;19.97;73.88
35489;BME280;21602;55.670;37.578;2023-05-22T10:05:14;99882.66;;;19.83;74.19
35489;BME280;21602;55.670;37.578;2023-05-22T10:07:55;99880.75;;;19.84;74.66
35489;BME280;21602;55.670;37.578;2023-05-22T10:10:24;99876.16;;;19.89;74.85
35489;BME280;21602;55.670;37.578;2023-05-22T10:13:04;99880.91;;;20.03;74.25
35489;BME280;21602;55.670;37.578;2023-05-22T10:15:34;99883.09;;;20.01;74.07
35489;BME280;21602;55.670;37.578;2023-05-22T10:18:00;99881.16;;;19.67;72.09
35489;BME280;21602;55.670;37.578;2023-05-22T10:20:29;99874.50;;;19.44;72.55
35489;BME280;21602;55.670;37.578;2023-05-22T10:22:55;99878.84;;;19.40;72.98
35489;BME280;21602;55.670;37.578;2023-05-22T10:25:27;99882.63;;;19.44;73.33
35489;BME280;21602;55.670;37.578;2023-05-22T10:28:01;99877.47;;;19.42;73.02
35489;BME280;21602;55.670;37.578;2023-05-22T10:31:05;99877.19;;;19.44;72.73
35489;BME280;21602;55.670;37.578;2023-05-22T10:34:05;99878.75;;;19.65;72.57
35489;BME280;21602;55.670;37.578;2023-05-22T10:39:39;99877.94;;;20.04;71.93
35489;BME280;21602;55.670;37.578;2023-05-22T10:42:14;99875.00;;;19.95;72.10
35489;BME280;21602;55.670;37.578;2023-05-22T10:44:42;99872.13;;;20.16;72.38
35489;BME280;21602;55.670;37.578;2023-05-22T10:47:10;99875.38;;;20.18;71.24
35489;BME280;21602;55.670;37.578;2023-05-22T10:49:42;99873.72;;;20.17;71.27
35489;BME280;21602;55.670;37.578;2023-05-22T10:52:11;99875.75;;;20.35;71.01
35489;BME280;21602;55.670;37.578;2023-05-22T10:54:41;99873.53;;;20.42;70.57
35489;BME280;21602;55.670;37.578;2023-05-22T10:57:09;99872.00;;;20.60;70.36
35489;BME280;21602;55.670;37.578;2023-05-22T10:59:36;99866.19;;;20.72;70.06
35489;BME280;21602;55.670;37.578;2023-05-22T11:02:12;99868.63;;;20.74;69.53
35489;BME280;21602;55.670;37.578;2023-05-22T11:04:42;99868.28;;;20.56;69.69
35489;BME280;21602;55.670;37.578;2023-05-22T11:07:09;99862.69;;;20.42;70.36
35489;BME280;21602;55.670;37.578;2023-05-22T11:09:40;99859.44;;;20.40;70.58
35489;BME280;21602;55.670;37.578;2023-05-22T11:12:27;99855.06;;;20.44;71.16
35489;BME280;21602;55.670;37.578;2023-05-22T11:15:06;99846.53;;;20.61;70.80
35489;BME280;21602;55.670;37.578;2023-05-22T11:17:41;99854.06;;;20.88;70.16
35489;BME280;21602;55.670;37.578;2023-05-22T11:20:17;99853.91;;;21.04;70.31
35489;BME280;21602;55.670;37.578;2023-05-22T11:22:58;99856.03;;;21.07;69.64
35489;BME280;21602;55.670;37.578;2023-05-22T11:25:26;99848.72;;;21.26;69.52
35489;BME280;21602;55.670;37.578;2023-05-22T11:27:53;99852.16;;;21.56;68.41
35489;BME280;21602;55.670;37.578;2023-05-22T11:30:19;99854.25;;;21.59;67.90
35489;BME280;21602;55.670;37.578;2023-05-22T11:32:49;99850.84;;;21.29;68.16
35489;BME280;21602;55.670;37.578;2023-05-22T11:35:17;99850.66;;;21.44;67.61
35489;BME280;21602;55.670;37.578;2023-05-22T11:37:43;99846.56;;;21.85;66.68
35489;BME280;21602;55.670;37.578;2023-05-22T11:40:11;99849.69;;;21.92;66.40
35489;BME280;21602;55.670;37.578;2023-05-22T11:42:37;99835.56;;;22.09;66.61
35489;BME280;21602;55.670;37.578;2023-05-22T11:45:04;99842.53;;;22.15;66.12
35489;BME280;21602;55.670;37.578;2023-05-22T11:47:34;99839.91;;;21.91;65.71
35489;BME280;21602;55.670;37.578;2023-05-22T11:50:02;99829.44;;;21.84;66.52
35489;BME280;21602;55.670;37.578;2023-05-22T11:52:31;99828.97;;;21.96;66.65
35489;BME280;21602;55.670;37.578;2023-05-22T11:54:58;99827.09;;;22.10;66.80
35489;BME280;21602;55.670;37.578;2023-05-22T11:57:24;99817.41;;;22.37;66.21
35489;BME280;21602;55.670;37.578;2023-05-22T11:59:50;99824.69;;;22.41;65.91
35489;BME280;21602;55.670;37.578;2023-05-22T12:02:17;99818.31;;;22.32;65.50
35489;BME280;21602;55.670;37.578;2023-05-22T12:04:45;99821.66;;;22.43;65.45
35489;BME280;21602;55.670;37.578;2023-05-22T12:07:11;99817.22;;;22.47;65.03
35489;BME280;21602;55.670;37.578;2023-05-22T12:09:41;99806.81;;;22.03;65.51
35489;BME280;21602;55.670;37.578;2023-05-22T12:12:10;99806.16;;;21.78;66.81
35489;BME280;21602;55.670;37.578;2023-05-22T12:14:37;99811.94;;;21.90;66.58
35489;BME280;21602;55.670;37.578;2023-05-22T12:17:04;99798.81;;;22.11;66.59
35489;BME280;21602;55.670;37.578;2023-05-22T12:19:31;99813.69;;;22.33;66.25
35489;BME280;21602;55.670;37.578;2023-05-22T12:21:58;99809.13;;;22.28;65.50
35489;BME280;21602;55.670;37.578;2023-05-22T12:24:24;99803.59;;;22.19;65.38
35489;BME280;21602;55.670;37.578;2023-05-22T12:26:54;99803.78;;;22.23;65.69
35489;BME280;21602;55.670;37.578;2023-05-22T12:29:21;99796.56;;;22.46;65.52
35489;BME280;21602;55.670;37.578;2023-05-22T12:31:48;99794.84;;;22.64;65.27
35489;BME280;21602;55.670;37.578;2023-05-22T12:34:16;99791.84;;;22.79;65.03
35489;BME280;21602;55.670;37.578;2023-05-22T12:36:45;99785.88;;;22.77;64.17
35489;BME280;21602;55.670;37.578;2023-05-22T12:39:20;99777.44;;;22.65;63.85
35489;BME280;21602;55.670;37.578;2023-05-22T12:41:46;99781.75;;;22.38;64.21
35489;BME280;21602;55.670;37.578;2023-05-22T12:44:15;99779.31;;;22.23;64.51
35489;BME280;21602;55.670;37.578;2023-05-22T12:47:06;99769.78;;;22.07;65.17
35489;BME280;21602;55.670;37.578;2023-05-22T12:49:32;99770.91;;;22.06;65.71
35489;BME280;21602;55.670;37.578;2023-05-22T12:51:58;99761.69;;;22.20;65.60
35489;BME280;21602;55.670;37.578;2023-05-22T12:54:24;99755.97;;;22.22;64.89
35489;BME280;21602;55.670;37.578;2023-05-22T12:56:50;99758.88;;;22.26;64.72
35489;BME280;21602;55.670;37.578;2023-05-22T12:59:15;99756.66;;;22.28;64.88
35489;BME280;21602;55.670;37.578;2023-05-22T13:01:41;99759.88;;;22.43;63.99
35489;BME280;21602;55.670;37.578;2023-05-22T13:04:08;99760.28;;;22.64;63.87
35489;BME280;21602;55.670;37.578;2023-05-22T13:06:33;99764.00;;;22.82;63.34
35489;BME280;21602;55.670;37.578;2023-05-22T13:08:59;99750.72;;;22.94;62.80
35489;BME280;21602;55.670;37.578;2023-05-22T13:11:25;99754.63;;;22.88;62.21
35489;BME280;21602;55.670;37.578;2023-05-22T13:13:51;99754.81;;;22.78;61.92
35489;BME280;21602;55.670;37.578;2023-05-22T13:16:17;99749.00;;;22.71;61.49